Time;durP1;ratioP1;P1;durP2;ratioP2;P2;SDS_P1;SDS_P2;PMS_P1;PMS_P2;Temp;Humidity;BMP_temperature;BMP_pressure;BME280_temperature;BME280_humidity;BME280_pressure;Samples;Min_cycle;Max_cycle;Signal;HPM_P1;HPM_P2
2021/10/20 00:02:23;;;;;;;3.83;3.40;;;;;;;;;;5031208;28;20473;-46
2021/10/20 00:04:49;;;;;;;3.70;3.50;;;;;;;;;;5031574;28;20434;-46
2021/10/20 00:07:15;;;;;;;3.43;3.23;;;;;;;;;;5031527;28;20455;-46
2021/10/20 00:09:41;;;;;;;8.10;4.43;;;;;;;;;;5033232;28;20435;-47
2021/10/20 00:12:07;;;;;;;3.20;3.00;;;;;;;;;;5035171;28;20507;-47
2021/10/20 00:14:33;;;;;;;3.80;3.50;;;;;;;;;;5035445;28;20777;-49
2021/10/20 00:16:59;;;;;;;3.70;3.40;;;;;;;;;;5035413;28;20643;-46
2021/10/20 00:19:25;;;;;;;3.50;3.20;;;;;;;;;;5035338;28;20510;-46
2021/10/20 00:21:51;;;;;;;4.90;3.13;;;;;;;;;;5034984;28;20465;-46
2021/10/20 00:24:17;;;;;;;5.23;3.17;;;;;;;;;;5035404;28;20402;-46
2021/10/20 00:26:43;;;;;;;3.87;3.50;;;;;;;;;;5035123;28;20421;-46
2021/10/20 00:29:09;;;;;;;4.30;3.97;;;;;;;;;;5035178;28;20485;-46
2021/10/20 00:31:35;;;;;;;4.10;3.70;;;;;;;;;;5035330;28;20863;-46
2021/10/20 00:34:01;;;;;;;3.67;3.37;;;;;;;;;;5034961;28;20411;-46
2021/10/20 00:36:27;;;;;;;4.07;3.00;;;;;;;;;;5033695;28;20444;-46
2021/10/20 00:38:52;;;;;;;3.90;3.60;;;;;;;;;;5035035;28;20402;-47
2021/10/20 00:41:18;;;;;;;4.77;4.27;;;;;;;;;;5034917;28;20871;-49
2021/10/20 00:43:44;;;;;;;3.73;3.43;;;;;;;;;;5034785;28;20464;-46
2021/10/20 00:46:10;;;;;;;8.60;3.60;;;;;;;;;;5034799;28;20442;-46
2021/10/20 00:48:37;;;;;;;8.17;4.03;;;;;;;;;;5034655;28;20417;-46
2021/10/20 00:51:03;;;;;;;5.60;3.30;;;;;;;;;;5034669;28;20453;-46
2021/10/20 00:53:29;;;;;;;5.60;4.10;;;;;;;;;;5034557;28;20902;-46
2021/10/20 00:55:55;;;;;;;4.33;3.90;;;;;;;;;;5034727;28;20377;-46
2021/10/20 00:58:21;;;;;;;3.83;3.53;;;;;;;;;;5034503;28;20487;-47
2021/10/20 01:00:47;;;;;;;4.03;3.63;;;;;;;;;;5034115;28;20460;-48
2021/10/20 01:03:13;;;;;;;3.57;3.30;;;;;;;;;;5033880;28;20798;-46
2021/10/20 01:05:39;;;;;;;4.17;3.80;;;;;;;;;;5033881;28;20464;-46
2021/10/20 01:08:05;;;;;;;4.17;3.73;;;;;;;;;;5033955;28;20405;-46
2021/10/20 01:10:31;;;;;;;3.80;3.50;;;;;;;;;;5034178;28;20454;-46
2021/10/20 01:12:57;;;;;;;4.77;3.17;;;;;;;;;;5034083;28;20517;-46
2021/10/20 01:15:24;;;;;;;3.70;3.40;;;;;;;;;;5034162;28;20481;-46
2021/10/20 01:17:50;;;;;;;5.13;3.37;;;;;;;;;;5034172;28;20402;-46
2021/10/20 01:20:17;;;;;;;3.80;3.40;;;;;;;;;;5033848;28;20866;-46
2021/10/20 01:22:43;;;;;;;3.73;3.13;;;;;;;;;;5033394;28;20422;-47
2021/10/20 01:25:10;;;;;;;4.70;3.17;;;;;;;;;;5034133;28;20439;-47
2021/10/20 01:27:36;;;;;;;6.50;4.17;;;;;;;;;;5033953;28;20398;-46
2021/10/20 01:30:03;;;;;;;4.30;3.73;;;;;;;;;;5034101;28;20377;-46
2021/10/20 01:32:29;;;;;;;5.03;4.07;;;;;;;;;;5033736;28;20543;-46
2021/10/20 01:34:56;;;;;;;5.30;3.60;;;;;;;;;;5034001;28;20476;-46
2021/10/20 01:37:23;;;;;;;3.40;3.07;;;;;;;;;;5033897;28;20381;-49
2021/10/20 01:39:49;;;;;;;4.97;4.00;;;;;;;;;;5033900;28;20405;-46
2021/10/20 01:42:15;;;;;;;4.33;3.93;;;;;;;;;;5033461;28;20504;-46
2021/10/20 01:44:41;;;;;;;3.90;3.50;;;;;;;;;;5033634;28;20436;-46
2021/10/20 01:47:07;;;;;;;4.10;3.53;;;;;;;;;;5033910;28;20489;-46
2021/10/20 01:49:33;;;;;;;6.00;3.83;;;;;;;;;;5033728;28;20410;-46
2021/10/20 01:51:59;;;;;;;4.80;3.73;;;;;;;;;;5033300;28;20486;-48
2021/10/20 01:54:25;;;;;;;3.30;3.10;;;;;;;;;;5033667;28;20376;-49
2021/10/20 01:56:51;;;;;;;4.40;3.80;;;;;;;;;;5033436;28;20452;-46
2021/10/20 01:59:17;;;;;;;4.80;4.20;;;;;;;;;;5033496;28;20456;-46
2021/10/20 02:01:43;;;;;;;5.60;3.90;;;;;;;;;;5033288;28;20410;-46
2021/10/20 02:04:10;;;;;;;3.93;3.63;;;;;;;;;;5033414;28;20579;-46
2021/10/20 02:06:36;;;;;;;5.10;4.00;;;;;;;;;;5033341;28;20402;-46
2021/10/20 02:09:04;;;;;;;5.20;3.60;;;;;;;;;;5033772;28;20867;-47
2021/10/20 02:11:31;;;;;;;4.40;3.87;;;;;;;;;;5032913;28;20438;-47
2021/10/20 02:13:57;;;;;;;8.27;4.00;;;;;;;;;;5032865;28;20448;-46
2021/10/20 02:16:23;;;;;;;3.90;3.50;;;;;;;;;;5031830;28;20411;-46
2021/10/20 02:18:49;;;;;;;4.03;3.73;;;;;;;;;;5033036;28;20425;-46
2021/10/20 02:21:16;;;;;;;3.67;3.37;;;;;;;;;;5033010;28;20433;-46
2021/10/20 02:23:42;;;;;;;4.80;3.53;;;;;;;;;;5032843;28;20775;-46
2021/10/20 02:26:08;;;;;;;4.00;3.67;;;;;;;;;;5032882;28;20407;-46
2021/10/20 02:28:34;;;;;;;4.23;3.40;;;;;;;;;;5032699;28;20882;-46
2021/10/20 02:31:00;;;;;;;6.13;3.70;;;;;;;;;;5032866;28;20453;-46
2021/10/20 02:33:26;;;;;;;4.03;3.73;;;;;;;;;;5032487;28;20395;-46
2021/10/20 02:35:52;;;;;;;4.47;3.30;;;;;;;;;;5032826;28;20890;-47
2021/10/20 02:38:18;;;;;;;4.80;4.27;;;;;;;;;;5032551;28;20394;-47
2021/10/20 02:40:44;;;;;;;4.70;4.20;;;;;;;;;;5032587;28;20973;-49
2021/10/20 02:43:10;;;;;;;6.70;4.60;;;;;;;;;;5032392;28;20505;-46
2021/10/20 02:45:36;;;;;;;6.57;4.23;;;;;;;;;;5032627;28;20412;-46
2021/10/20 02:48:02;;;;;;;4.47;4.07;;;;;;;;;;5032520;28;20402;-46
2021/10/20 02:50:29;;;;;;;5.07;3.93;;;;;;;;;;5032510;28;20405;-46
2021/10/20 02:52:56;;;;;;;3.50;3.20;;;;;;;;;;5032193;28;20837;-46
2021/10/20 02:55:22;;;;;;;4.10;3.70;;;;;;;;;;5032465;28;20433;-45
2021/10/20 02:57:48;;;;;;;3.97;3.67;;;;;;;;;;5032518;28;20377;-46
2021/10/20 03:00:14;;;;;;;3.80;3.53;;;;;;;;;;5032414;28;20906;-46
2021/10/20 03:02:40;;;;;;;4.80;3.83;;;;;;;;;;5032246;28;20453;-46
2021/10/20 03:05:06;;;;;;;9.00;4.30;;;;;;;;;;5032279;28;20813;-46
2021/10/20 03:07:32;;;;;;;5.00;3.93;;;;;;;;;;5032190;28;20379;-46
2021/10/20 03:09:58;;;;;;;4.33;3.93;;;;;;;;;;5032136;28;20406;-46
2021/10/20 03:12:24;;;;;;;8.53;4.47;;;;;;;;;;5031713;28;20450;-46
2021/10/20 03:14:50;;;;;;;5.23;4.37;;;;;;;;;;5032129;28;20403;-46
2021/10/20 03:17:16;;;;;;;4.97;3.90;;;;;;;;;;5032090;28;20406;-47
2021/10/20 03:19:43;;;;;;;4.93;3.93;;;;;;;;;;5032027;28;20418;-48
2021/10/20 03:22:10;;;;;;;5.80;4.03;;;;;;;;;;5032184;28;20544;-45
2021/10/20 03:24:36;;;;;;;4.93;4.40;;;;;;;;;;5030799;28;20501;-46
2021/10/20 03:27:02;;;;;;;5.40;4.87;;;;;;;;;;5031770;28;20448;-46
2021/10/20 03:29:28;;;;;;;6.50;4.37;;;;;;;;;;5031915;28;20377;-46
2021/10/20 03:31:54;;;;;;;5.07;3.90;;;;;;;;;;5031486;28;20453;-46
2021/10/20 03:34:20;;;;;;;6.90;4.23;;;;;;;;;;5031927;28;20399;-46
2021/10/20 03:36:46;;;;;;;4.47;4.07;;;;;;;;;;5031708;28;20464;-47
2021/10/20 03:39:12;;;;;;;7.10;3.97;;;;;;;;;;5031887;28;20437;-49
2021/10/20 03:41:38;;;;;;;3.83;3.53;;;;;;;;;;5031660;28;20448;-46
2021/10/20 03:44:04;;;;;;;6.67;4.60;;;;;;;;;;5031221;28;20645;-45
2021/10/20 03:46:30;;;;;;;6.37;4.10;;;;;;;;;;5031798;28;20469;-46
2021/10/20 03:48:56;;;;;;;4.60;4.20;;;;;;;;;;5031736;28;20858;-46
2021/10/20 03:51:22;;;;;;;4.77;4.33;;;;;;;;;;5031498;28;20556;-46
2021/10/20 03:53:48;;;;;;;5.20;3.87;;;;;;;;;;5031500;28;20396;-46
2021/10/20 03:56:14;;;;;;;5.33;3.90;;;;;;;;;;5031707;28;20501;-46
2021/10/20 03:58:40;;;;;;;6.20;4.70;;;;;;;;;;5031615;28;20397;-46
2021/10/20 04:01:06;;;;;;;5.10;4.00;;;;;;;;;;5031519;28;20406;-46
2021/10/20 04:03:32;;;;;;;3.97;3.57;;;;;;;;;;5031459;28;20500;-46
2021/10/20 04:05:58;;;;;;;10.90;3.63;;;;;;;;;;5031546;28;20410;-48
2021/10/20 04:08:24;;;;;;;5.90;4.37;;;;;;;;;;5032178;28;20440;-47
2021/10/20 04:10:50;;;;;;;4.67;4.17;;;;;;;;;;5031266;28;20451;-47
2021/10/20 04:13:16;;;;;;;4.87;4.40;;;;;;;;;;5031320;28;20398;-47
2021/10/20 04:15:42;;;;;;;5.00;4.40;;;;;;;;;;5031508;28;20817;-47
2021/10/20 04:18:08;;;;;;;4.53;4.17;;;;;;;;;;5031264;28;20429;-46
2021/10/20 04:20:34;;;;;;;5.70;4.10;;;;;;;;;;5031497;28;20401;-46
2021/10/20 04:23:00;;;;;;;4.30;3.90;;;;;;;;;;5031159;28;20418;-46
2021/10/20 04:25:26;;;;;;;4.90;4.47;;;;;;;;;;5031314;28;20452;-46
2021/10/20 04:27:52;;;;;;;4.57;4.07;;;;;;;;;;5031341;28;20402;-47
2021/10/20 04:30:20;;;;;;;4.60;3.90;;;;;;;;;;5031367;28;20397;-46
2021/10/20 04:32:46;;;;;;;4.90;4.40;;;;;;;;;;5031508;28;20892;-47
2021/10/20 04:35:12;;;;;;;10.80;4.10;;;;;;;;;;5031282;28;20398;-46
2021/10/20 04:37:39;;;;;;;4.87;4.37;;;;;;;;;;5031344;28;20430;-47
2021/10/20 04:40:06;;;;;;;7.67;4.20;;;;;;;;;;5031270;28;20973;-46
2021/10/20 04:42:32;;;;;;;8.50;4.37;;;;;;;;;;5030945;28;20452;-48
2021/10/20 04:44:59;;;;;;;5.53;4.80;;;;;;;;;;5031194;28;20398;-47
2021/10/20 04:47:25;;;;;;;6.23;3.90;;;;;;;;;;5031212;28;20402;-46
2021/10/20 04:49:51;;;;;;;4.67;4.27;;;;;;;;;;5031101;28;20411;-46
2021/10/20 04:52:22;;;;;;;5.30;4.40;;;;;;;;;;5030796;28;20462;-47
2021/10/20 04:54:48;;;;;;;5.43;4.50;;;;;;;;;;5031166;28;20793;-46
2021/10/20 04:57:14;;;;;;;4.20;3.90;;;;;;;;;;5033283;28;20406;-46
2021/10/20 04:59:40;;;;;;;4.63;4.00;;;;;;;;;;5034648;28;20398;-46
2021/10/20 05:02:06;;;;;;;5.97;4.60;;;;;;;;;;5034298;28;20845;-47
2021/10/20 05:04:31;;;;;;;7.43;4.40;;;;;;;;;;5034497;28;20844;-46
2021/10/20 05:06:58;;;;;;;5.03;4.53;;;;;;;;;;5034404;28;20494;-47
2021/10/20 05:09:24;;;;;;;5.17;4.67;;;;;;;;;;5034454;28;20384;-47
2021/10/20 05:11:50;;;;;;;4.47;3.80;;;;;;;;;;5034075;28;20469;-47
2021/10/20 05:14:16;;;;;;;9.90;4.70;;;;;;;;;;5034476;28;20399;-47
2021/10/20 05:16:42;;;;;;;5.47;4.47;;;;;;;;;;5034872;28;20464;-48
2021/10/20 05:19:08;;;;;;;4.50;4.10;;;;;;;;;;5034142;28;20437;-48
2021/10/20 05:21:34;;;;;;;7.20;4.33;;;;;;;;;;5034152;28;20430;-47
2021/10/20 05:24:00;;;;;;;6.90;4.40;;;;;;;;;;5033863;28;20409;-47
2021/10/20 05:26:26;;;;;;;6.43;4.83;;;;;;;;;;5034236;28;20713;-49
2021/10/20 05:28:52;;;;;;;5.47;4.60;;;;;;;;;;5034031;28;20407;-48
2021/10/20 05:31:18;;;;;;;5.30;4.23;;;;;;;;;;5033855;28;20522;-48
2021/10/20 05:33:44;;;;;;;6.53;4.90;;;;;;;;;;5033860;28;20410;-48
2021/10/20 05:36:10;;;;;;;6.53;4.77;;;;;;;;;;5033895;28;20403;-48
2021/10/20 05:38:37;;;;;;;6.40;4.70;;;;;;;;;;5033866;28;20417;-48
2021/10/20 05:41:03;;;;;;;5.50;5.00;;;;;;;;;;5033831;28;20406;-48
2021/10/20 05:43:29;;;;;;;5.17;4.10;;;;;;;;;;5033675;28;20909;-48
2021/10/20 05:45:55;;;;;;;5.53;5.03;;;;;;;;;;5033260;28;20406;-48
2021/10/20 05:48:24;;;;;;;7.00;4.73;;;;;;;;;;5032985;28;20876;-48
2021/10/20 05:50:51;;;;;;;5.27;4.77;;;;;;;;;;5032941;28;20458;-48
2021/10/20 05:53:17;;;;;;;5.40;5.00;;;;;;;;;;5032867;28;20904;-48
2021/10/20 05:55:43;;;;;;;5.90;4.60;;;;;;;;;;5033006;28;20405;-48
2021/10/20 05:58:10;;;;;;;6.03;4.90;;;;;;;;;;5033296;28;20716;-48
2021/10/20 06:00:36;;;;;;;4.93;4.50;;;;;;;;;;5033436;28;20431;-48
2021/10/20 06:03:02;;;;;;;8.20;5.13;;;;;;;;;;5033233;28;20427;-48
2021/10/20 06:05:28;;;;;;;5.00;4.60;;;;;;;;;;5033487;28;20378;-50
2021/10/20 06:07:54;;;;;;;5.97;5.33;;;;;;;;;;5032909;28;20373;-48
2021/10/20 06:10:20;;;;;;;4.83;4.43;;;;;;;;;;5033362;28;20373;-48
2021/10/20 06:12:46;;;;;;;5.20;4.70;;;;;;;;;;5033126;28;20399;-48
2021/10/20 06:15:13;;;;;;;4.40;4.00;;;;;;;;;;5033234;28;20887;-48
2021/10/20 06:17:39;;;;;;;6.93;4.83;;;;;;;;;;5033289;28;20757;-48
2021/10/20 06:20:06;;;;;;;4.77;4.37;;;;;;;;;;5033233;28;20392;-48
2021/10/20 06:22:33;;;;;;;6.60;5.37;;;;;;;;;;5032879;28;20441;-48
2021/10/20 06:24:59;;;;;;;5.00;4.60;;;;;;;;;;5033110;28;20856;-48
2021/10/20 06:27:25;;;;;;;6.20;5.20;;;;;;;;;;5033010;28;20406;-48
2021/10/20 06:29:51;;;;;;;4.40;4.03;;;;;;;;;;5033022;28;20415;-48
2021/10/20 06:32:17;;;;;;;5.23;4.80;;;;;;;;;;5032668;28;20508;-48
2021/10/20 06:34:43;;;;;;;6.30;4.97;;;;;;;;;;5032922;28;20473;-48
2021/10/20 06:37:10;;;;;;;6.27;5.10;;;;;;;;;;5032793;28;20508;-47
2021/10/20 06:39:36;;;;;;;4.83;4.43;;;;;;;;;;5032875;28;20456;-48
2021/10/20 06:42:02;;;;;;;5.00;4.40;;;;;;;;;;5032531;28;20420;-48
2021/10/20 06:44:28;;;;;;;4.33;3.93;;;;;;;;;;5032668;28;20405;-48
2021/10/20 06:46:54;;;;;;;5.63;5.07;;;;;;;;;;5032669;28;20403;-48
2021/10/20 06:49:20;;;;;;;5.00;4.60;;;;;;;;;;5032628;28;20494;-48
2021/10/20 06:51:46;;;;;;;4.33;3.93;;;;;;;;;;5032313;28;20466;-48
2021/10/20 06:54:18;;;;;;;5.40;4.57;;;;;;;;;;5032601;28;20466;-47
2021/10/20 06:56:45;;;;;;;4.93;4.43;;;;;;;;;;5032453;28;20387;-48
2021/10/20 06:59:11;;;;;;;5.70;5.20;;;;;;;;;;5032486;28;20381;-49
2021/10/20 07:01:37;;;;;;;5.77;5.10;;;;;;;;;;5032348;28;20801;-48
2021/10/20 07:04:03;;;;;;;5.83;5.23;;;;;;;;;;5032233;28;20416;-47
2021/10/20 07:06:29;;;;;;;5.93;4.53;;;;;;;;;;5032238;28;20406;-48
2021/10/20 07:08:55;;;;;;;5.40;4.93;;;;;;;;;;5032381;28;20449;-47
2021/10/20 07:11:22;;;;;;;7.00;4.80;;;;;;;;;;5032095;28;20432;-48
2021/10/20 07:13:48;;;;;;;5.77;4.87;;;;;;;;;;5033230;28;20392;-48
2021/10/20 07:16:14;;;;;;;5.90;4.67;;;;;;;;;;5043476;28;20384;-48
2021/10/20 07:18:40;;;;;;;6.63;4.27;;;;;;;;;;5049969;28;20403;-48
2021/10/20 07:21:06;;;;;;;4.93;4.47;;;;;;;;;;5049920;28;20397;-48
2021/10/20 07:23:32;;;;;;;5.10;4.60;;;;;;;;;;5049895;28;20867;-48
2021/10/20 07:25:58;;;;;;;6.97;4.97;;;;;;;;;;5048210;28;20401;-48
2021/10/20 07:28:25;;;;;;;4.80;4.40;;;;;;;;;;5050395;28;20913;-47
2021/10/20 07:30:51;;;;;;;5.33;4.83;;;;;;;;;;5050640;28;20454;-48
2021/10/20 07:33:17;;;;;;;5.10;4.70;;;;;;;;;;5051651;28;20378;-48
2021/10/20 07:35:43;;;;;;;6.30;4.77;;;;;;;;;;5051725;28;20845;-48
2021/10/20 07:38:09;;;;;;;6.47;5.30;;;;;;;;;;5051765;28;20387;-47
2021/10/20 07:40:35;;;;;;;4.93;4.20;;;;;;;;;;5051702;28;20377;-48
2021/10/20 07:43:01;;;;;;;5.90;5.40;;;;;;;;;;5051412;28;20766;-47
2021/10/20 07:45:27;;;;;;;6.20;4.77;;;;;;;;;;5051720;28;20433;-48
2021/10/20 07:47:53;;;;;;;5.27;4.80;;;;;;;;;;5051668;28;20398;-48
2021/10/20 07:50:20;;;;;;;5.20;4.30;;;;;;;;;;5051585;28;20471;-48
2021/10/20 07:52:49;;;;;;;5.90;4.70;;;;;;;;;;5051259;28;20468;-48
2021/10/20 07:55:19;;;;;;;5.13;4.60;;;;;;;;;;5051560;28;20374;-48
2021/10/20 07:57:45;;;;;;;6.20;5.10;;;;;;;;;;5051582;28;20457;-48
2021/10/20 08:00:12;;;;;;;5.43;4.63;;;;;;;;;;5051545;28;20388;-48
2021/10/20 08:02:38;;;;;;;7.60;4.90;;;;;;;;;;5051240;28;20404;-48
2021/10/20 08:05:04;;;;;;;4.80;4.40;;;;;;;;;;5051531;28;20379;-48
2021/10/20 08:07:30;;;;;;;6.53;4.80;;;;;;;;;;5051883;28;20407;-48
2021/10/20 08:09:56;;;;;;;6.20;4.17;;;;;;;;;;5051928;28;20407;-48
2021/10/20 08:12:22;;;;;;;5.77;5.23;;;;;;;;;;5051103;28;21024;-48
2021/10/20 08:14:52;;;;;;;5.23;4.73;;;;;;;;;;5051446;28;20491;-48
2021/10/20 08:17:18;;;;;;;8.47;5.67;;;;;;;;;;5051389;28;20379;-48
2021/10/20 08:19:44;;;;;;;8.00;4.90;;;;;;;;;;5051303;28;20420;-48
2021/10/20 08:22:10;;;;;;;5.10;4.60;;;;;;;;;;5051092;28;20967;-48
2021/10/20 08:24:36;;;;;;;4.90;4.43;;;;;;;;;;5051526;28;20886;-48
2021/10/20 08:27:02;;;;;;;4.70;4.20;;;;;;;;;;5051182;28;20440;-48
2021/10/20 08:29:29;;;;;;;7.20;5.23;;;;;;;;;;5051254;28;20425;-47
2021/10/20 08:31:55;;;;;;;5.43;4.90;;;;;;;;;;5054481;28;20428;-48
2021/10/20 08:34:22;;;;;;;4.90;4.50;;;;;;;;;;5054909;28;20372;-48
2021/10/20 08:36:48;;;;;;;5.70;5.17;;;;;;;;;;5054921;28;20377;-48
2021/10/20 08:39:15;;;;;;;5.40;4.60;;;;;;;;;;5054113;28;20381;-48
2021/10/20 08:41:41;;;;;;;7.10;5.23;;;;;;;;;;5054689;28;20410;-47
2021/10/20 08:44:07;;;;;;;6.03;5.10;;;;;;;;;;5054744;28;20376;-48
2021/10/20 08:46:33;;;;;;;5.77;5.27;;;;;;;;;;5054759;28;20626;-48
2021/10/20 08:49:01;;;;;;;8.80;5.53;;;;;;;;;;5054641;28;20414;-47
2021/10/20 08:51:27;;;;;;;5.33;4.80;;;;;;;;;;5054351;28;20463;-48
2021/10/20 08:53:55;;;;;;;5.30;4.80;;;;;;;;;;5054614;28;20712;-48
2021/10/20 08:56:21;;;;;;;7.27;4.80;;;;;;;;;;5054505;28;20396;-47
2021/10/20 08:58:47;;;;;;;6.10;4.63;;;;;;;;;;5054551;28;20868;-48
2021/10/20 09:01:13;;;;;;;8.00;5.10;;;;;;;;;;5054524;28;20426;-48
2021/10/20 09:03:39;;;;;;;7.87;5.03;;;;;;;;;;5054206;28;20827;-48
2021/10/20 09:06:05;;;;;;;5.53;5.00;;;;;;;;;;5054318;28;20412;-48
2021/10/20 09:08:41;;;;;;;4.30;4.00;;;;;;;;;;5054336;28;20421;-48
2021/10/20 09:11:29;;;;;;;5.70;5.10;;;;;;;;;;5054377;28;20490;-48
2021/10/20 09:14:05;;;;;;;5.20;4.70;;;;;;;;;;5054548;28;20811;-48
2021/10/20 09:16:32;;;;;;;6.97;4.90;;;;;;;;;;5054037;28;20397;-47
2021/10/20 09:18:59;;;;;;;5.30;4.80;;;;;;;;;;5046268;28;20441;-48
2021/10/20 09:21:25;;;;;;;4.60;4.20;;;;;;;;;;5038458;28;20408;-48
2021/10/20 09:23:52;;;;;;;4.90;4.40;;;;;;;;;;5033825;28;20961;-48
2021/10/20 09:26:18;;;;;;;5.57;4.83;;;;;;;;;;5036371;28;20911;-50
2021/10/20 09:28:44;;;;;;;5.60;4.97;;;;;;;;;;5033991;28;20864;-46
2021/10/20 09:31:10;;;;;;;5.17;4.77;;;;;;;;;;5033780;28;20548;-46
2021/10/20 09:33:36;;;;;;;7.37;5.40;;;;;;;;;;5033519;28;20383;-47
2021/10/20 09:36:06;;;;;;;5.10;4.60;;;;;;;;;;5031998;28;20478;-49
2021/10/20 09:38:36;;;;;;;5.23;4.40;;;;;;;;;;5032189;28;20405;-46
2021/10/20 09:41:06;;;;;;;5.13;4.73;;;;;;;;;;5033053;28;20406;-46
2021/10/20 09:43:32;;;;;;;6.77;4.20;;;;;;;;;;5032956;28;20767;-46
2021/10/20 09:46:02;;;;;;;5.13;4.70;;;;;;;;;;5033814;28;20379;-46
2021/10/20 09:48:28;;;;;;;6.17;5.57;;;;;;;;;;5033617;28;20930;-46
2021/10/20 09:51:23;;;;;;;5.63;5.17;;;;;;;;;;5033539;28;20454;-46
2021/10/20 09:53:51;;;;;;;6.10;4.60;;;;;;;;;;5028804;28;20910;-46
2021/10/20 09:56:23;;;;;;;5.43;4.47;;;;;;;;;;5033631;28;20409;-46
2021/10/20 09:58:49;;;;;;;5.63;5.20;;;;;;;;;;5033530;28;20412;-45
2021/10/20 10:01:18;;;;;;;5.50;5.00;;;;;;;;;;5033441;28;20397;-46
2021/10/20 10:03:44;;;;;;;5.83;5.03;;;;;;;;;;5033271;28;20420;-46
2021/10/20 10:06:10;;;;;;;5.73;5.13;;;;;;;;;;5033440;28;20384;-46
2021/10/20 10:08:36;;;;;;;6.37;5.40;;;;;;;;;;5033799;28;20389;-46
2021/10/20 10:11:02;;;;;;;5.30;4.80;;;;;;;;;;5033241;28;20439;-46
2021/10/20 10:13:30;;;;;;;6.00;5.30;;;;;;;;;;5040554;28;20387;-46
2021/10/20 10:15:58;;;;;;;6.23;5.60;;;;;;;;;;5053101;28;20409;-46
2021/10/20 10:18:25;;;;;;;5.03;4.50;;;;;;;;;;5052906;28;20803;-46
2021/10/20 10:20:51;;;;;;;7.93;5.30;;;;;;;;;;5052909;28;20387;-46
2021/10/20 10:23:19;;;;;;;6.27;5.00;;;;;;;;;;5052691;28;20386;-46
2021/10/20 10:25:45;;;;;;;5.97;5.37;;;;;;;;;;5053002;28;20747;-46
2021/10/20 10:28:21;;;;;;;6.20;5.60;;;;;;;;;;5052982;28;20411;-46
2021/10/20 10:30:49;;;;;;;6.37;5.77;;;;;;;;;;5052915;28;20730;-47
2021/10/20 10:33:19;;;;;;;6.50;5.20;;;;;;;;;;5052669;28;20404;-48
2021/10/20 10:35:45;;;;;;;5.80;5.33;;;;;;;;;;5052648;28;20412;-49
2021/10/20 10:38:11;;;;;;;6.13;5.53;;;;;;;;;;5052650;28;20737;-46
2021/10/20 10:40:37;;;;;;;5.50;5.00;;;;;;;;;;5052601;28;20404;-46
2021/10/20 10:43:05;;;;;;;7.00;6.10;;;;;;;;;;5052335;28;20471;-47
2021/10/20 10:45:31;;;;;;;6.13;5.53;;;;;;;;;;5052529;28;20453;-45
2021/10/20 10:48:01;;;;;;;9.23;7.00;;;;;;;;;;5052634;28;20760;-45
2021/10/20 10:50:40;;;;;;;8.00;6.60;;;;;;;;;;5052467;28;20374;-46
2021/10/20 10:53:07;;;;;;;6.07;5.50;;;;;;;;;;5052056;28;20409;-46
2021/10/20 10:55:33;;;;;;;6.73;6.13;;;;;;;;;;5052699;28;20708;-46
2021/10/20 10:58:00;;;;;;;6.67;6.07;;;;;;;;;;5052288;28;20382;-46
2021/10/20 11:00:28;;;;;;;6.27;5.77;;;;;;;;;;5052250;28;20375;-49
2021/10/20 11:02:58;;;;;;;8.33;5.10;;;;;;;;;;5051991;28;20397;-46
2021/10/20 11:05:27;;;;;;;11.03;5.70;;;;;;;;;;5052253;28;20894;-46
2021/10/20 11:07:59;;;;;;;7.67;6.40;;;;;;;;;;5052148;28;20383;-48
2021/10/20 11:10:25;;;;;;;6.43;5.80;;;;;;;;;;5052200;28;20834;-48
2021/10/20 11:12:52;;;;;;;7.20;6.50;;;;;;;;;;5051771;28;20436;-49
2021/10/20 11:15:19;;;;;;;6.63;5.93;;;;;;;;;;5051971;28;20406;-46
2021/10/20 11:17:45;;;;;;;6.60;6.00;;;;;;;;;;5050847;28;20460;-46
2021/10/20 11:20:13;;;;;;;6.97;6.37;;;;;;;;;;5051902;28;20560;-46
2021/10/20 11:22:39;;;;;;;7.60;6.87;;;;;;;;;;5051607;28;20423;-45
2021/10/20 11:25:07;;;;;;;7.57;6.40;;;;;;;;;;5051874;28;20439;-46
2021/10/20 11:27:34;;;;;;;8.80;6.80;;;;;;;;;;5051705;28;20378;-45
2021/10/20 11:30:00;;;;;;;9.07;7.63;;;;;;;;;;5051716;28;20394;-45
2021/10/20 11:32:26;;;;;;;6.80;6.10;;;;;;;;;;5051390;28;20460;-48
2021/10/20 11:34:54;;;;;;;6.37;5.77;;;;;;;;;;5051730;28;20752;-45
2021/10/20 11:37:23;;;;;;;7.67;6.67;;;;;;;;;;5050818;28;20403;-46
2021/10/20 11:40:01;;;;;;;7.97;7.17;;;;;;;;;;5051617;28;20377;-45
2021/10/20 11:42:28;;;;;;;9.33;7.20;;;;;;;;;;5051280;28;20467;-45
2021/10/20 11:44:54;;;;;;;9.00;7.17;;;;;;;;;;5051537;28;20840;-46
2021/10/20 11:47:20;;;;;;;6.40;5.80;;;;;;;;;;5051515;28;20435;-46
2021/10/20 11:49:50;;;;;;;6.83;6.23;;;;;;;;;;5051547;28;20754;-46
2021/10/20 11:52:17;;;;;;;9.27;6.93;;;;;;;;;;5051167;28;20955;-46
2021/10/20 11:54:43;;;;;;;8.67;6.67;;;;;;;;;;5051445;28;20378;-46
2021/10/20 11:57:10;;;;;;;8.00;6.40;;;;;;;;;;5051384;28;20440;-46
2021/10/20 11:59:37;;;;;;;8.67;7.33;;;;;;;;;;5051403;28;20406;-46
2021/10/20 12:02:03;;;;;;;7.87;6.30;;;;;;;;;;5051158;28;20431;-46
2021/10/20 12:04:30;;;;;;;7.03;6.20;;;;;;;;;;5051516;28;20876;-46
2021/10/20 12:06:58;;;;;;;8.80;7.37;;;;;;;;;;5055200;28;20408;-46
2021/10/20 12:09:24;;;;;;;7.40;6.70;;;;;;;;;;5055343;28;20419;-45
2021/10/20 12:11:51;;;;;;;7.50;6.70;;;;;;;;;;5055021;28;20992;-46
2021/10/20 12:14:19;;;;;;;8.40;7.03;;;;;;;;;;5055485;28;20374;-46
2021/10/20 12:16:47;;;;;;;6.70;6.00;;;;;;;;;;5055405;28;20401;-46
2021/10/20 12:19:15;;;;;;;6.60;5.97;;;;;;;;;;5055218;28;20406;-46
2021/10/20 12:21:41;;;;;;;16.00;5.80;;;;;;;;;;5055129;28;20390;-46
2021/10/20 12:24:08;;;;;;;10.20;6.97;;;;;;;;;;5055010;28;20848;-46
2021/10/20 12:26:35;;;;;;;6.30;5.70;;;;;;;;;;5055141;28;20400;-46
2021/10/20 12:29:03;;;;;;;7.93;6.27;;;;;;;;;;5055265;28;20412;-46
2021/10/20 12:31:29;;;;;;;9.23;6.73;;;;;;;;;;5054915;28;20435;-48
2021/10/20 12:33:55;;;;;;;11.63;6.63;;;;;;;;;;5054857;28;20895;-48
2021/10/20 12:36:26;;;;;;;8.70;6.60;;;;;;;;;;5054841;28;20758;-45
2021/10/20 12:38:52;;;;;;;10.83;6.07;;;;;;;;;;5054944;28;20819;-46
2021/10/20 12:41:26;;;;;;;7.07;5.90;;;;;;;;;;5054886;28;20403;-45
2021/10/20 12:43:54;;;;;;;6.53;5.87;;;;;;;;;;5054646;28;20526;-46
2021/10/20 12:46:20;;;;;;;10.13;6.30;;;;;;;;;;5054793;28;20388;-45
2021/10/20 12:48:47;;;;;;;6.63;6.07;;;;;;;;;;5054816;28;20376;-48
2021/10/20 12:51:14;;;;;;;6.33;5.73;;;;;;;;;;5054492;28;20466;-46
2021/10/20 12:53:44;;;;;;;6.33;5.77;;;;;;;;;;5054522;28;20411;-46
2021/10/20 12:56:10;;;;;;;8.90;6.20;;;;;;;;;;5054653;28;20492;-46
2021/10/20 12:58:37;;;;;;;7.70;6.43;;;;;;;;;;5054546;28;20422;-46
2021/10/20 13:01:03;;;;;;;6.43;5.80;;;;;;;;;;5054494;28;20386;-46
2021/10/20 13:03:30;;;;;;;6.37;5.77;;;;;;;;;;5054708;28;20488;-46
2021/10/20 13:05:56;;;;;;;8.00;5.97;;;;;;;;;;5054406;28;20434;-47
2021/10/20 13:08:22;;;;;;;6.00;5.47;;;;;;;;;;5054361;28;20882;-46
2021/10/20 13:10:49;;;;;;;7.10;6.40;;;;;;;;;;5054285;28;20885;-46
2021/10/20 13:13:15;;;;;;;8.20;6.83;;;;;;;;;;5054065;28;20803;-46
2021/10/20 13:15:41;;;;;;;8.00;6.57;;;;;;;;;;5054312;28;20495;-47
2021/10/20 13:18:07;;;;;;;7.40;6.47;;;;;;;;;;5052749;28;20425;-46
2021/10/20 13:20:33;;;;;;;5.83;5.33;;;;;;;;;;5054260;28;20379;-46
2021/10/20 13:23:03;;;;;;;7.03;6.37;;;;;;;;;;5053881;28;20421;-46
2021/10/20 13:25:29;;;;;;;7.13;6.43;;;;;;;;;;5054161;28;20439;-46
2021/10/20 13:27:55;;;;;;;7.60;6.40;;;;;;;;;;5053906;28;20448;-47
2021/10/20 13:30:22;;;;;;;6.60;6.00;;;;;;;;;;5054462;28;20408;-49
2021/10/20 13:32:48;;;;;;;6.70;6.00;;;;;;;;;;5053427;28;20434;-47
2021/10/20 13:35:14;;;;;;;9.70;6.57;;;;;;;;;;5053914;28;20413;-46
2021/10/20 13:37:40;;;;;;;7.13;6.27;;;;;;;;;;5053975;28;20517;-46
2021/10/20 13:40:06;;;;;;;6.90;6.30;;;;;;;;;;5053821;28;20462;-46
2021/10/20 13:42:33;;;;;;;6.37;5.83;;;;;;;;;;5053897;28;20433;-47
2021/10/20 13:45:04;;;;;;;7.40;6.70;;;;;;;;;;5053718;28;20393;-46
2021/10/20 13:47:30;;;;;;;8.47;7.07;;;;;;;;;;5053532;28;20462;-46
2021/10/20 13:49:56;;;;;;;12.07;7.00;;;;;;;;;;5053670;28;20800;-46
2021/10/20 13:52:22;;;;;;;6.20;5.73;;;;;;;;;;5053267;28;20441;-46
2021/10/20 13:54:48;;;;;;;7.13;6.43;;;;;;;;;;5053603;28;20428;-46
2021/10/20 13:57:16;;;;;;;6.50;6.00;;;;;;;;;;5053469;28;20859;-46
2021/10/20 13:59:42;;;;;;;7.17;6.47;;;;;;;;;;5053420;28;20370;-47
2021/10/20 14:02:08;;;;;;;7.00;6.40;;;;;;;;;;5053072;28;20440;-47
2021/10/20 14:04:37;;;;;;;7.87;6.53;;;;;;;;;;5053446;28;20486;-47
2021/10/20 14:07:06;;;;;;;7.00;6.40;;;;;;;;;;5053262;28;20866;-46
2021/10/20 14:09:32;;;;;;;6.30;5.70;;;;;;;;;;5053313;28;20418;-46
2021/10/20 14:11:58;;;;;;;7.50;6.10;;;;;;;;;;5053036;28;20474;-46
2021/10/20 14:14:24;;;;;;;7.80;5.93;;;;;;;;;;5053037;28;20737;-46
2021/10/20 14:16:51;;;;;;;8.57;5.50;;;;;;;;;;5041381;28;20383;-47
2021/10/20 14:19:17;;;;;;;6.10;5.50;;;;;;;;;;5033068;28;20435;-47
2021/10/20 14:21:43;;;;;;;6.47;5.80;;;;;;;;;;5039380;28;20538;-49
2021/10/20 14:24:10;;;;;;;7.30;6.47;;;;;;;;;;5041826;28;20392;-47
2021/10/20 14:26:36;;;;;;;6.57;5.50;;;;;;;;;;5045740;28;20896;-47
2021/10/20 14:29:03;;;;;;;9.60;5.80;;;;;;;;;;5052461;28;20401;-47
2021/10/20 14:31:36;;;;;;;12.57;6.50;;;;;;;;;;5052600;28;20459;-47
2021/10/20 14:34:02;;;;;;;7.90;6.07;;;;;;;;;;5050815;28;20389;-46
2021/10/20 14:36:28;;;;;;;7.03;5.97;;;;;;;;;;5050822;28;20374;-47
2021/10/20 14:38:54;;;;;;;6.47;5.60;;;;;;;;;;5050895;28;20426;-48
2021/10/20 14:41:20;;;;;;;6.70;5.60;;;;;;;;;;5050474;28;20925;-47